Aldenville, Pennsylvania
Current Conditions -  °F | °C
As of 5:55 PM on Thursday 23 Oct 2014 (Local Time) from KMSV Reporting Station
Overcast Overcast  
Wind Chill: 40°   Ceiling: 1400
Heat Index: 46°   Visibility: 10mi
Dew Point: 43°   Wind: 14mph
Humidity: 87%   Direction: 340°NNW
Pressure: 29.81"   Gusts: 20mph
Location:  41.65°N, 75.36°W
Report Text: KMSV 232155Z AUTO 34012G17KT 10SM OVC014 08/06 A2981 RMK AO1
Loading
Personal Weather Stations






























Interactive Weather Map
Tropical Storm Tracking
New forecast layout! Learn more

10-Day Weather Forecast

Advertisements
Track Severe Weather on mobile